Terminal Aerodrome Forecast
Issued by NWS

Home | Current Version | Previous Version | Graphics & Text | Print | Product List | Glossary On
Versions: 1 2 3 4 5 6 7 8 9 10 11 12 13 14 15 16 17 18 19 20 21 22 23 24 25
613
FTUS43 KLOT 100300 AAA
TAFORD
TAF AMD
KORD 100300Z 1003/1106 27007KT P6SM FEW035 BKN120
     FM101500 25009KT P6SM BKN070
      TEMPO 1021/1022 2SM -SN BKN020
     FM102200 19007KT 1 1/2SM -SN SCT010 OVC020
     FM102300 17007KT 3/4SM -SN BKN008 OVC012
     FM110400 15010KT 1SM -SN SCT008 OVC015=

USA.gov is the U.S. government's official web portal to all federal, state and local government web resources and services.